Weather at Eskişehir Air Base

Public forecast

Using degrees Celsius for public forecast. Weather courtesy of forecast.io.

Current aviation weather report (METAR) for Eskişehir Air Base

Retrieved 2022/01/21 19:50 UTC (42 minutes ago):

LTBI 211950Z VRB01KT 9999 -RA BKN030 01/M00 Q1014 NOSIG RMK RWY08 00000KT

Aviation forecast (TAF) for Eskişehir Air Base

Forecast is more than 12 hours old.

Retrieved 2012/05/11 09:09 UTC (10 years ago):

TAF LTBI 110740Z 1109/1121 VRB02KT 6000 -SHRA BKN030 BKN090 TEMPO 1112/1116 33015KT 4000 -TSRA FEW025CB BKN030